Airfield :
LOGIN :

Register | Disclaimer

   EN    FR    IT 

 










Legend :    VFR   Marginal VFR   IFR   Intensive IFR   Very Intensive IFR
Visi :
Ceiling :
>= 8 km
>= 3000ft
5 to 8 km
1000 to 3000 ft
1500m to 5 km
500 to 1000 ft
800 to 1500m
200 to 500 ft
< 800m
< 200 ft
Symbols :   Thunderstorms  Fog  Heavy snow  Heavy precipitations  Wind > 20 kt
SIGMETs :     Misc.  Thunderstorms  Icing  Turbulence  Mountain Waves  Volcanic Ashes






- Airport Elevation : 297 ft
- IATA code : ODB


LEBA - Córdoba

CURRENT METAR :
  • 030730Z 25006KT 210V290 9999 BKN027 24/19 Q1018

EXPIRED METARs :
  • 030700Z 24006KT 200V280 9999 BKN027 24/19 Q1018
  • 030630Z 26005KT 230V290 9999 BKN025 24/19 Q1018
  • 030600Z 26005KT 230V290 9999 BKN025 23/19 Q1018
  • 030530Z AUTO 25006KT 220V280 9999 OVC025 23/19 Q1018
  • 030500Z AUTO 25006KT 220V290 9999 BKN024 23/19 Q1018

TAF TAF LEBA
Valid from the 03 at 03:00 until the 04 at 03:00 UTC


030200Z 0303/0403 24008KT CAVOK TX35/0315Z TN20/0403Z
PROB40
TEMPO 0303/0308 BKN010



MET'MAP, your aeronautical weather chart ! - Copyright ORBIFLY December 2007 - Disclaimer

ORBIFLY MET'MAP TEAM :

Programming & Development : Alexandra Zaïnal
Original concept : Baudouin d'Aumeries
Technical & hardware support : Manuel Goepfert
Assistance : Marc-Olivier Méhu




SOURCES & CREDITS :

   NOAA